createdAt,value
2019-01-06T00:01:48.658Z,100630.75
2019-01-06T00:04:49.379Z,100625.77
2019-01-06T00:07:39.324Z,100626.51
2019-01-06T00:10:38.565Z,100623.55
2019-01-06T00:13:46.052Z,100626.59
2019-01-06T00:16:46.316Z,100626.19
2019-01-06T00:19:41.889Z,100628.23
2019-01-06T00:22:32.029Z,100627.22
2019-01-06T00:25:32.087Z,100627.30
2019-01-06T00:28:22.071Z,100628.66
2019-01-06T00:31:16.258Z,100623.73
2019-01-06T00:34:25.930Z,100625.16
2019-01-06T00:37:15.690Z,100627.55
2019-01-06T00:40:06.820Z,100625.88
2019-01-06T00:43:00.702Z,100629.71
2019-01-06T00:45:54.971Z,100636.95
2019-01-06T00:48:44.738Z,100629.50
2019-01-06T00:51:35.867Z,100634.19
2019-01-06T00:54:25.987Z,100637.98
2019-01-06T00:57:25.282Z,100640.20
2019-01-06T01:00:15.242Z,100639.36
2019-01-06T01:03:05.252Z,100640.31
2019-01-06T01:05:54.920Z,100641.00
2019-01-06T01:08:51.829Z,100639.02
2019-01-06T01:11:41.514Z,100641.27
2019-01-06T01:14:31.525Z,100646.95
2019-01-06T01:17:21.586Z,100648.26
2019-01-06T01:20:11.485Z,100647.94
2019-01-06T01:22:51.271Z,100660.16
2019-01-06T01:25:41.187Z,100662.43
2019-01-06T01:28:31.109Z,100664.47
2019-01-06T01:31:34.161Z,100666.24
2019-01-06T01:34:25.246Z,100668.92
2019-01-06T01:37:12.231Z,100671.81
2019-01-06T01:40:03.067Z,100675.59
2019-01-06T01:43:00.183Z,100677.66
2019-01-06T01:45:51.401Z,100675.17
2019-01-06T01:48:44.691Z,100679.47
2019-01-06T01:51:34.342Z,100677.40
2019-01-06T01:54:25.412Z,100675.28
2019-01-06T01:57:15.100Z,100676.12
2019-01-06T02:00:00.852Z,100675.36
2019-01-06T02:03:01.256Z,100673.08
2019-01-06T02:06:10.578Z,100677.91
2019-01-06T02:08:54.462Z,100672.47
2019-01-06T02:11:41.449Z,100670.33
2019-01-06T02:14:30.955Z,100667.06
2019-01-06T02:17:27.993Z,100666.67
2019-01-06T02:20:25.261Z,100669.30
2019-01-06T02:23:31.736Z,100671.76
2019-01-06T02:26:18.543Z,100668.28
2019-01-06T02:29:06.067Z,100671.52
2019-01-06T02:31:55.971Z,100666.45
2019-01-06T02:34:45.911Z,100667.41
2019-01-06T02:37:27.198Z,100669.55
2019-01-06T02:40:36.553Z,100667.55
2019-01-06T02:43:33.627Z,100667.37
2019-01-06T02:46:20.425Z,100663.14
2019-01-06T02:49:04.850Z,100669.59
2019-01-06T02:52:04.286Z,100673.00
2019-01-06T02:54:55.441Z,100675.55
2019-01-06T02:57:45.285Z,100676.10
2019-01-06T03:00:35.006Z,100677.48
2019-01-06T03:03:41.411Z,100673.83
2019-01-06T03:06:32.448Z,100671.27
2019-01-06T03:09:24.175Z,100666.01
2019-01-06T03:12:21.064Z,100665.27
2019-01-06T03:15:13.745Z,100661.24
2019-01-06T03:18:04.025Z,100663.47
2019-01-06T03:21:17.925Z,100652.09
2019-01-06T03:24:24.152Z,100640.28
2019-01-06T03:27:14.129Z,100635.55
2019-01-06T03:30:03.971Z,100637.61
2019-01-06T03:32:58.599Z,100637.34
2019-01-06T03:35:48.253Z,100630.72
2019-01-06T03:38:38.438Z,100632.84
2019-01-06T03:41:35.647Z,100636.49
2019-01-06T03:44:32.643Z,100638.59
2019-01-06T03:47:26.472Z,100643.91
2019-01-06T03:50:23.368Z,100646.87
2019-01-06T03:53:26.235Z,100640.42
2019-01-06T03:56:32.336Z,100633.29
2019-01-06T03:59:35.754Z,100634.16
2019-01-06T04:02:26.042Z,100636.13
2019-01-06T04:05:21.373Z,100637.95
2019-01-06T04:08:18.593Z,100639.20
2019-01-06T04:11:15.391Z,100633.34
2019-01-06T04:14:05.162Z,100631.75
2019-01-06T04:16:59.209Z,100636.92
2019-01-06T04:20:05.405Z,100638.91
2019-01-06T04:23:11.547Z,100639.06
2019-01-06T04:26:01.725Z,100642.30
2019-01-06T04:28:59.055Z,100637.13
2019-01-06T04:31:56.175Z,100638.25
2019-01-06T04:34:47.251Z,100633.72
2019-01-06T04:37:44.127Z,100641.50
2019-01-06T04:40:33.954Z,100632.23
2019-01-06T04:43:37.142Z,100636.41
2019-01-06T04:46:37.172Z,100634.98
2019-01-06T04:49:40.695Z,100638.77
2019-01-06T04:52:30.715Z,100642.67
2019-01-06T04:55:30.456Z,100647.76
2019-01-06T04:58:20.287Z,100644.11
2019-01-06T05:01:11.331Z,100647.70
2019-01-06T05:03:58.986Z,100650.86
2019-01-06T05:06:56.313Z,100647.67
2019-01-06T05:09:46.468Z,100655.59
2019-01-06T05:12:46.622Z,100657.31
2019-01-06T05:15:35.521Z,100662.27
2019-01-06T05:18:32.636Z,100662.38
2019-01-06T05:21:26.546Z,100658.45
2019-01-06T05:24:23.406Z,100667.41
2019-01-06T05:27:17.345Z,100666.54
2019-01-06T05:30:26.768Z,100668.55
2019-01-06T05:33:16.745Z,100665.14
2019-01-06T05:36:06.489Z,100670.75
2019-01-06T05:38:55.007Z,100664.89
2019-01-06T05:41:48.907Z,100667.28
2019-01-06T05:44:42.163Z,100664.09
2019-01-06T05:47:33.204Z,100662.91
2019-01-06T05:50:19.783Z,100661.98
2019-01-06T05:53:09.784Z,100664.18
2019-01-06T05:56:06.694Z,100665.14
2019-01-06T05:58:57.739Z,100668.31
2019-01-06T06:01:47.618Z,100665.03
2019-01-06T06:04:37.080Z,100671.02
2019-01-06T06:07:34.548Z,100671.25
2019-01-06T06:10:24.889Z,100671.15
2019-01-06T06:13:22.120Z,100672.95
2019-01-06T06:16:13.190Z,100667.59
2019-01-06T06:19:03.152Z,100665.45
2019-01-06T06:21:53.104Z,100670.44
2019-01-06T06:24:42.821Z,100667.41
2019-01-06T06:27:24.461Z,100675.23
2019-01-06T06:30:14.455Z,100672.98
2019-01-06T06:33:04.478Z,100672.45
2019-01-06T06:35:54.439Z,100676.58
2019-01-06T06:38:44.076Z,100680.13
2019-01-06T06:41:25.991Z,100688.13
2019-01-06T06:44:17.043Z,100693.98
2019-01-06T06:47:17.233Z,100693.90
2019-01-06T06:50:07.443Z,100693.05
2019-01-06T06:53:13.965Z,100697.53
2019-01-06T06:56:07.834Z,100702.12
2019-01-06T06:58:58.979Z,100706.73
2019-01-06T07:02:51.713Z,100708.00
2019-01-06T07:05:35.149Z,100704.66
2019-01-06T07:08:25.084Z,100720.66
2019-01-06T07:11:23.103Z,100719.41
2019-01-06T07:14:29.489Z,100717.56
2019-01-06T07:18:09.765Z,100722.51
2019-01-06T07:21:22.790Z,100722.32
2019-01-06T07:24:32.219Z,100725.87
2019-01-06T07:27:21.811Z,100728.20
2019-01-06T07:30:11.576Z,100730.45
2019-01-06T07:33:05.600Z,100729.52
2019-01-06T07:36:12.117Z,100735.59
2019-01-06T07:39:01.822Z,100735.70
2019-01-06T07:42:03.952Z,100738.11
2019-01-06T07:44:57.789Z,100732.25
2019-01-06T07:47:47.719Z,100739.38
2019-01-06T07:50:46.027Z,100747.20
2019-01-06T07:53:48.309Z,100746.75
2019-01-06T07:56:35.716Z,100749.98
2019-01-06T07:59:29.831Z,100761.31
2019-01-06T08:02:13.450Z,100758.70
2019-01-06T08:05:00.096Z,100761.93
2019-01-06T08:08:00.349Z,100761.95
2019-01-06T08:10:52.833Z,100772.66
2019-01-06T08:13:43.883Z,100770.97
2019-01-06T08:16:33.753Z,100777.41
2019-01-06T08:19:23.679Z,100778.44
2019-01-06T08:22:13.523Z,100784.19
2019-01-06T08:25:17.092Z,100787.84
2019-01-06T08:28:10.903Z,100787.58
2019-01-06T08:31:01.897Z,100792.80
2019-01-06T08:33:52.033Z,100794.73
2019-01-06T08:36:43.599Z,100795.02
2019-01-06T08:39:34.823Z,100789.86
2019-01-06T08:42:22.011Z,100794.76
2019-01-06T08:45:24.206Z,100795.08
2019-01-06T08:48:25.322Z,100794.94
2019-01-06T08:51:31.490Z,100801.19
2019-01-06T08:54:28.237Z,100811.48
2019-01-06T08:57:28.350Z,100805.91
2019-01-06T09:00:14.455Z,100809.11
2019-01-06T09:03:05.360Z,100813.83
2019-01-06T09:06:10.732Z,100820.59
2019-01-06T09:09:11.319Z,100812.87
2019-01-06T09:12:12.317Z,100819.61
2019-01-06T09:15:17.361Z,100824.22
2019-01-06T09:18:07.433Z,100824.22
2019-01-06T09:21:01.014Z,100824.17
2019-01-06T09:23:46.523Z,100824.44
2019-01-06T09:26:37.781Z,100824.75
2019-01-06T09:29:25.108Z,100825.39
2019-01-06T09:32:15.230Z,100822.56
2019-01-06T09:35:08.730Z,100830.83
2019-01-06T09:38:07.560Z,100835.55
2019-01-06T09:41:01.745Z,100833.34
2019-01-06T09:43:52.807Z,100840.58
2019-01-06T09:46:51.981Z,100831.50
2019-01-06T09:49:45.833Z,100834.13
2019-01-06T09:52:40.104Z,100823.71
2019-01-06T09:55:33.408Z,100832.80
2019-01-06T09:58:17.230Z,100823.02
2019-01-06T10:01:12.047Z,100824.75
2019-01-06T10:04:01.912Z,100821.20
2019-01-06T10:06:56.038Z,100817.94
2019-01-06T10:09:46.188Z,100816.80
2019-01-06T10:12:49.600Z,100814.19
2019-01-06T10:15:53.115Z,100817.37
2019-01-06T10:18:47.026Z,100819.38
2019-01-06T10:21:31.958Z,100819.27
2019-01-06T10:24:35.139Z,100820.97
2019-01-06T10:27:29.278Z,100820.34
2019-01-06T10:30:32.689Z,100818.77
2019-01-06T10:33:19.746Z,100820.45
2019-01-06T10:36:29.203Z,100825.69
2019-01-06T10:39:32.202Z,100828.50
2019-01-06T10:42:25.244Z,100822.91
2019-01-06T10:45:08.555Z,100825.77
2019-01-06T10:48:14.820Z,100824.08
2019-01-06T10:51:17.909Z,100824.69
2019-01-06T10:54:13.761Z,100820.23
2019-01-06T10:57:03.800Z,100821.53
2019-01-06T10:59:53.822Z,100822.09
2019-01-06T11:02:43.812Z,100820.27
2019-01-06T11:05:33.928Z,100821.78
2019-01-06T11:08:23.865Z,100821.41
2019-01-06T11:11:13.745Z,100819.55
2019-01-06T11:14:03.857Z,100815.47
2019-01-06T11:16:58.004Z,100815.63
2019-01-06T11:19:48.203Z,100819.63
2019-01-06T11:22:38.010Z,100818.92
2019-01-06T11:25:27.841Z,100820.94
2019-01-06T11:28:17.565Z,100819.42
2019-01-06T11:31:08.708Z,100815.92
2019-01-06T11:34:07.389Z,100817.92
2019-01-06T11:37:07.469Z,100820.41
2019-01-06T11:40:13.661Z,100825.08
2019-01-06T11:43:03.532Z,100821.72
2019-01-06T11:46:00.461Z,100818.27
2019-01-06T11:48:50.347Z,100814.20
2019-01-06T11:51:41.426Z,100812.67
2019-01-06T11:54:41.438Z,100813.10
2019-01-06T11:57:35.355Z,100815.63
2019-01-06T12:00:38.752Z,100807.00
2019-01-06T12:03:41.259Z,100802.28
2019-01-06T12:06:32.340Z,100808.25
2019-01-06T12:09:24.949Z,100804.22
2019-01-06T12:12:14.840Z,100806.80
2019-01-06T12:15:09.929Z,100806.34
2019-01-06T12:17:59.585Z,100807.98
2019-01-06T12:20:49.271Z,100811.01
2019-01-06T12:23:46.234Z,100806.56
2019-01-06T12:26:36.034Z,100805.12
2019-01-06T12:29:25.825Z,100804.25
2019-01-06T12:32:33.698Z,100808.02
2019-01-06T12:35:24.901Z,100808.62
2019-01-06T12:38:15.954Z,100811.11
2019-01-06T12:41:07.029Z,100806.81
2019-01-06T12:44:11.747Z,100812.92
2019-01-06T12:47:06.179Z,100811.17
2019-01-06T12:49:57.343Z,100817.30
2019-01-06T12:52:57.497Z,100821.75
2019-01-06T12:55:51.446Z,100820.23
2019-01-06T12:58:41.159Z,100823.66
2019-01-06T13:01:41.174Z,100829.12
2019-01-06T13:04:36.161Z,100830.89
2019-01-06T13:07:31.911Z,100832.09
2019-01-06T13:10:22.255Z,100833.68
2019-01-06T13:13:02.351Z,100833.95
2019-01-06T13:15:53.726Z,100841.74
2019-01-06T13:18:46.530Z,100842.38
2019-01-06T13:21:53.202Z,100841.61
2019-01-06T13:24:59.622Z,100846.91
2019-01-06T13:27:56.790Z,100849.42
2019-01-06T13:30:46.610Z,100853.98
2019-01-06T13:33:40.590Z,100859.81
2019-01-06T13:36:30.694Z,100857.33
2019-01-06T13:39:32.748Z,100856.63
2019-01-06T13:42:20.723Z,100860.91
2019-01-06T13:45:18.879Z,100866.18
2019-01-06T13:48:29.553Z,100866.29
2019-01-06T13:51:33.539Z,100869.31
2019-01-06T13:54:30.638Z,100872.09
2019-01-06T13:57:25.884Z,100871.06
2019-01-06T14:00:29.191Z,100874.72
2019-01-06T14:03:20.331Z,100875.62
2019-01-06T14:06:23.793Z,100879.81
2019-01-06T14:09:14.751Z,100883.70
2019-01-06T14:12:04.494Z,100889.16
2019-01-06T14:15:04.740Z,100880.47
2019-01-06T14:17:54.754Z,100887.05
2019-01-06T14:20:44.719Z,100891.89
2019-01-06T14:23:45.094Z,100888.20
2019-01-06T14:26:41.962Z,100891.25
2019-01-06T14:29:50.451Z,100893.27
2019-01-06T14:32:41.508Z,100894.86
2019-01-06T14:35:47.789Z,100894.54
2019-01-06T14:38:48.138Z,100902.81
2019-01-06T14:41:32.244Z,100905.44
2019-01-06T14:44:21.962Z,100910.27
2019-01-06T14:47:11.909Z,100905.55
2019-01-06T14:50:09.261Z,100912.39
2019-01-06T14:52:59.461Z,100908.94
2019-01-06T14:55:53.564Z,100909.84
2019-01-06T14:59:00.066Z,100916.80
2019-01-06T15:02:09.476Z,100921.81
2019-01-06T15:05:00.629Z,100917.59
2019-01-06T15:08:04.059Z,100919.43
2019-01-06T15:10:53.824Z,100921.59
2019-01-06T15:13:46.255Z,100923.23
2019-01-06T15:16:36.325Z,100927.77
2019-01-06T15:19:34.765Z,100924.73
2019-01-06T15:22:25.849Z,100928.30
2019-01-06T15:25:17.251Z,100927.94
2019-01-06T15:28:11.382Z,100926.66
2019-01-06T15:31:01.327Z,100926.64
2019-01-06T15:34:07.687Z,100931.59
2019-01-06T15:36:57.737Z,100931.81
2019-01-06T15:40:06.887Z,100935.01
2019-01-06T15:42:56.880Z,100934.16
2019-01-06T15:45:54.018Z,100935.98
2019-01-06T15:48:59.532Z,100938.52
2019-01-06T15:52:02.760Z,100938.36
2019-01-06T15:54:45.969Z,100938.03
2019-01-06T15:57:46.314Z,100943.42
2019-01-06T16:00:40.251Z,100943.66
2019-01-06T16:03:46.703Z,100945.34
2019-01-06T16:06:37.791Z,100945.50
2019-01-06T16:09:27.555Z,100946.38
2019-01-06T16:12:24.402Z,100947.91
2019-01-06T16:15:10.661Z,100954.45
2019-01-06T16:18:16.379Z,100957.77
2019-01-06T16:21:16.919Z,100958.45
2019-01-06T16:24:08.054Z,100960.45
2019-01-06T16:26:58.140Z,100966.06
2019-01-06T16:29:58.040Z,100958.27
2019-01-06T16:32:55.255Z,100964.86
2019-01-06T16:35:44.990Z,100958.09
2019-01-06T16:38:36.226Z,100963.11
2019-01-06T16:41:27.494Z,100959.94
2019-01-06T16:44:18.541Z,100967.09
2019-01-06T16:47:28.441Z,100965.87
2019-01-06T16:50:18.290Z,100963.61
2019-01-06T16:53:16.696Z,100963.45
2019-01-06T16:56:06.778Z,100964.96
2019-01-06T16:59:10.138Z,100970.69
2019-01-06T17:02:00.460Z,100967.19
2019-01-06T17:05:00.910Z,100964.95
2019-01-06T17:07:58.435Z,100961.08
2019-01-06T17:11:08.500Z,100966.37
2019-01-06T17:14:09.635Z,100959.33
2019-01-06T17:17:12.781Z,100965.27
2019-01-06T17:20:02.799Z,100968.51
2019-01-06T17:22:58.551Z,100965.16
2019-01-06T17:25:56.239Z,100965.45
2019-01-06T17:28:49.634Z,100968.97
2019-01-06T17:31:56.488Z,100969.78
2019-01-06T17:34:49.352Z,100964.89
2019-01-06T17:37:38.293Z,100966.17
2019-01-06T17:40:46.870Z,100961.50
2019-01-06T17:43:42.492Z,100969.83
2019-01-06T17:46:33.977Z,100969.84
2019-01-06T17:49:28.562Z,100968.56
2019-01-06T17:52:22.848Z,100974.45
2019-01-06T17:55:29.263Z,100974.27
2019-01-06T17:58:16.051Z,100982.22
2019-01-06T18:01:16.197Z,100980.49
2019-01-06T18:04:16.505Z,100982.24
2019-01-06T18:07:04.961Z,100986.13
2019-01-06T18:10:05.342Z,100988.27
2019-01-06T18:12:54.451Z,100984.95
2019-01-06T18:15:44.206Z,100984.00
2019-01-06T18:18:41.189Z,100988.97
2019-01-06T18:21:32.255Z,100991.21
2019-01-06T18:24:24.737Z,100990.58
2019-01-06T18:27:14.727Z,100987.95
2019-01-06T18:30:15.212Z,100989.02
2019-01-06T18:33:15.510Z,100980.06
2019-01-06T18:36:05.429Z,100990.24
2019-01-06T18:39:05.754Z,100991.99
2019-01-06T18:41:55.495Z,100996.10
2019-01-06T18:44:50.582Z,100985.11
2019-01-06T18:47:41.684Z,100992.13
2019-01-06T18:50:45.228Z,100993.42
2019-01-06T18:53:36.389Z,100997.67
2019-01-06T18:56:23.512Z,101002.26
2019-01-06T18:59:13.950Z,100996.69
2019-01-06T19:02:20.041Z,101003.08
2019-01-06T19:05:13.943Z,101001.80
2019-01-06T19:08:03.708Z,101004.44
2019-01-06T19:10:54.423Z,101004.09
2019-01-06T19:13:43.225Z,101003.39
2019-01-06T19:16:37.394Z,101003.55
2019-01-06T19:19:35.881Z,101007.19
2019-01-06T19:22:28.285Z,101002.18
2019-01-06T19:25:08.286Z,101009.89
2019-01-06T19:28:14.841Z,101008.38
2019-01-06T19:31:18.307Z,101014.11
2019-01-06T19:34:12.953Z,101018.48
2019-01-06T19:37:02.847Z,101011.41
2019-01-06T19:39:53.196Z,101019.20
2019-01-06T19:42:53.318Z,101011.48
2019-01-06T19:45:43.943Z,101011.71
2019-01-06T19:48:47.093Z,101013.73
2019-01-06T19:51:41.374Z,101019.20
2019-01-06T19:54:31.368Z,101016.45
2019-01-06T19:57:28.235Z,101018.91
2019-01-06T20:00:18.069Z,101018.01
2019-01-06T20:03:14.980Z,101023.66
2019-01-06T20:06:13.372Z,101023.18
2019-01-06T20:09:19.607Z,101025.11
2019-01-06T20:12:23.006Z,101031.61
2019-01-06T20:15:29.191Z,101028.02
2019-01-06T20:18:32.777Z,101032.92
2019-01-06T20:21:22.515Z,101035.55
2019-01-06T20:24:29.077Z,101029.16
2019-01-06T20:27:15.971Z,101028.51
2019-01-06T20:30:01.885Z,101036.86
2019-01-06T20:33:02.045Z,101033.28
2019-01-06T20:35:51.804Z,101035.80
2019-01-06T20:38:44.924Z,101040.20
2019-01-06T20:41:39.234Z,101042.59
2019-01-06T20:44:23.287Z,101039.64
2019-01-06T20:47:13.279Z,101038.30
2019-01-06T20:50:13.716Z,101034.50
2019-01-06T20:53:10.607Z,101036.05
2019-01-06T20:56:00.694Z,101034.41
2019-01-06T20:58:50.680Z,101040.99
2019-01-06T21:02:00.150Z,101043.70
2019-01-06T21:04:55.050Z,101041.23
2019-01-06T21:08:04.010Z,101038.81
2019-01-06T21:11:13.307Z,101040.98
2019-01-06T21:14:22.624Z,101040.93
2019-01-06T21:17:19.697Z,101046.05
2019-01-06T21:20:05.695Z,101044.73
2019-01-06T21:23:03.447Z,101037.72
2019-01-06T21:26:02.115Z,101050.66
2019-01-06T21:28:51.909Z,101052.64
2019-01-06T21:31:39.593Z,101053.78
2019-01-06T21:34:29.350Z,101058.88
2019-01-06T21:37:22.286Z,101057.80
2019-01-06T21:40:19.460Z,101057.84
2019-01-06T21:43:10.787Z,101053.78
2019-01-06T21:46:02.707Z,101053.06
2019-01-06T21:49:01.934Z,101057.61
2019-01-06T21:51:52.069Z,101054.59
2019-01-06T21:54:41.984Z,101056.22
2019-01-06T21:57:32.156Z,101050.59
2019-01-06T22:00:22.041Z,101054.59
2019-01-06T22:03:16.573Z,101052.98
2019-01-06T22:06:07.634Z,101056.73
2019-01-06T22:08:57.789Z,101056.48
2019-01-06T22:11:49.895Z,101057.44
2019-01-06T22:15:27.679Z,101058.80
2019-01-06T22:17:52.450Z,101053.48
2019-01-06T22:20:46.464Z,101053.20
2019-01-06T22:23:46.874Z,101053.89
2019-01-06T22:26:37.934Z,101050.78
2019-01-06T22:29:27.739Z,101058.39
2019-01-06T22:32:24.681Z,101045.94
2019-01-06T22:35:14.680Z,101052.61
2019-01-06T22:38:17.756Z,101050.78
2019-01-06T22:41:17.638Z,101047.84
2019-01-06T22:44:00.894Z,101050.75
2019-01-06T22:47:03.848Z,101053.64
2019-01-06T22:50:07.039Z,101050.27
2019-01-06T22:52:56.667Z,101047.25
2019-01-06T22:55:46.365Z,101042.67
2019-01-06T22:58:49.885Z,101043.65
2019-01-06T23:01:56.053Z,101048.20
2019-01-06T23:04:53.023Z,101048.19
2019-01-06T23:08:02.588Z,101051.48
2019-01-06T23:11:02.827Z,101048.96
2019-01-06T23:14:09.215Z,101043.59
2019-01-06T23:17:00.348Z,101045.42
2019-01-06T23:19:54.818Z,101048.47
2019-01-06T23:23:04.168Z,101046.33
2019-01-06T23:25:55.842Z,101048.22
2019-01-06T23:28:45.557Z,101046.58
2019-01-06T23:31:35.477Z,101046.89
2019-01-06T23:34:25.450Z,101052.33
2019-01-06T23:37:12.570Z,101051.28
2019-01-06T23:40:15.829Z,101055.14
2019-01-06T23:43:10.728Z,101056.01
2019-01-06T23:46:01.791Z,101055.31
2019-01-06T23:48:52.871Z,101056.47
2019-01-06T23:51:39.025Z,101057.55
2019-01-06T23:54:39.246Z,101060.86
2019-01-06T23:57:30.303Z,101063.32
